<?xml version="1.0" encoding="UTF-8" standalone="no" ?>
<gpx xmlns="http://www.topografix.com/GPX/1/1" xmlns:xsi="http://www.w3.org/2001/XMLSchema-instance" xsi:schemaLocation="http://www.topografix.com/GPX/1/1 http://www.topografix.com/GPX/1/1/gpx.xsd" version="1.1" creator="VisuGPX - https://www.visugpx.com">
  <metadata>
    <name>Transcaucasie: Géorgie + Arménie</name>
  </metadata>
  <trk>
    <name><![CDATA[Tour d'Europe: étape 458]]></name>
    <extensions>
      <line xmlns="http://www.topografix.com/GPX/gpx_style/0/2">
        <color>880088</color>
        <width>4</width>
      </line>
    </extensions>
    <trkseg>
      <trkpt lat="41.84201" lon="43.38054">
        <ele>820.839099</ele>
        <time>2021-09-29T05:13:09.108Z</time>
      </trkpt>
      <trkpt lat="41.84168" lon="43.3799">
        <ele>820.066445</ele>
        <time>2021-09-29T05:22:26.052Z</time>
      </trkpt>
      <trkpt lat="41.83953" lon="43.37877">
        <ele>818.097584</ele>
        <time>2021-09-29T05:23:50.085Z</time>
      </trkpt>
      <trkpt lat="41.83749" lon="43.37871">
        <ele>823.568678</ele>
        <time>2021-09-29T05:25:13.049Z</time>
      </trkpt>
      <trkpt lat="41.83664" lon="43.37786">
        <ele>837.202062</ele>
        <time>2021-09-29T05:26:53.028Z</time>
      </trkpt>
      <trkpt lat="41.8367" lon="43.37511">
        <ele>842.697852</ele>
        <time>2021-09-29T05:27:49.061Z</time>
      </trkpt>
      <trkpt lat="41.83694" lon="43.37188">
        <ele>844.972226</ele>
        <time>2021-09-29T05:30:02.091Z</time>
      </trkpt>
      <trkpt lat="41.83506" lon="43.36931">
        <ele>832.940787</ele>
        <time>2021-09-29T05:30:43.031Z</time>
      </trkpt>
      <trkpt lat="41.83311" lon="43.36817">
        <ele>831.392542</ele>
        <time>2021-09-29T05:31:43.034Z</time>
      </trkpt>
      <trkpt lat="41.83149" lon="43.36641">
        <ele>838.904175</ele>
        <time>2021-09-29T05:32:52.027Z</time>
      </trkpt>
      <trkpt lat="41.83047" lon="43.36415">
        <ele>845.371939</ele>
        <time>2021-09-29T05:34:10.051Z</time>
      </trkpt>
      <trkpt lat="41.82901" lon="43.36225">
        <ele>850.667617</ele>
        <time>2021-09-29T05:35:14.049Z</time>
      </trkpt>
      <trkpt lat="41.82735" lon="43.36078">
        <ele>855.585307</ele>
        <time>2021-09-29T05:36:21.050Z</time>
      </trkpt>
      <trkpt lat="41.82861" lon="43.35774">
        <ele>852.647806</ele>
        <time>2021-09-29T05:37:05.071Z</time>
      </trkpt>
      <trkpt lat="41.8284" lon="43.35367">
        <ele>837.198689</ele>
        <time>2021-09-29T05:37:40.051Z</time>
      </trkpt>
      <trkpt lat="41.82771" lon="43.35018">
        <ele>830.822485</ele>
        <time>2021-09-29T05:38:29.079Z</time>
      </trkpt>
      <trkpt lat="41.82568" lon="43.34834">
        <ele>831.799932</ele>
        <time>2021-09-29T05:39:28.048Z</time>
      </trkpt>
      <trkpt lat="41.8237" lon="43.34864">
        <ele>828.030534</ele>
        <time>2021-09-29T05:40:13.043Z</time>
      </trkpt>
      <trkpt lat="41.82151" lon="43.35005">
        <ele>831.937263</ele>
        <time>2021-09-29T05:41:10.070Z</time>
      </trkpt>
      <trkpt lat="41.81972" lon="43.35186">
        <ele>837.949253</ele>
        <time>2021-09-29T05:42:09.047Z</time>
      </trkpt>
      <trkpt lat="41.81761" lon="43.35219">
        <ele>827.675873</ele>
        <time>2021-09-29T05:43:08.063Z</time>
      </trkpt>
      <trkpt lat="41.81596" lon="43.35033">
        <ele>825.352786</ele>
        <time>2021-09-29T05:44:00.049Z</time>
      </trkpt>
      <trkpt lat="41.81503" lon="43.3477">
        <ele>835.871104</ele>
        <time>2021-09-29T05:44:51.048Z</time>
      </trkpt>
      <trkpt lat="41.81391" lon="43.34524">
        <ele>836.158443</ele>
        <time>2021-09-29T05:45:41.040Z</time>
      </trkpt>
      <trkpt lat="41.81411" lon="43.34229">
        <ele>840.698653</ele>
        <time>2021-09-29T05:46:34.043Z</time>
      </trkpt>
      <trkpt lat="41.81363" lon="43.33942">
        <ele>850.977843</ele>
        <time>2021-09-29T05:47:34.054Z</time>
      </trkpt>
      <trkpt lat="41.81184" lon="43.33776">
        <ele>833.531789</ele>
        <time>2021-09-29T05:48:23.050Z</time>
      </trkpt>
      <trkpt lat="41.81013" lon="43.33573">
        <ele>829.86106</ele>
        <time>2021-09-29T05:49:21.070Z</time>
      </trkpt>
      <trkpt lat="41.80928" lon="43.33307">
        <ele>839.675083</ele>
        <time>2021-09-29T05:50:28.050Z</time>
      </trkpt>
      <trkpt lat="41.80801" lon="43.33042">
        <ele>843.012089</ele>
        <time>2021-09-29T05:51:31.063Z</time>
      </trkpt>
      <trkpt lat="41.80712" lon="43.32804">
        <ele>847.246867</ele>
        <time>2021-09-29T05:52:26.087Z</time>
      </trkpt>
      <trkpt lat="41.80635" lon="43.32526">
        <ele>847.935954</ele>
        <time>2021-09-29T05:53:21.038Z</time>
      </trkpt>
      <trkpt lat="41.80483" lon="43.32312">
        <ele>840.794159</ele>
        <time>2021-09-29T05:54:18.048Z</time>
      </trkpt>
      <trkpt lat="41.80345" lon="43.32101">
        <ele>844.802696</ele>
        <time>2021-09-29T05:55:12.076Z</time>
      </trkpt>
      <trkpt lat="41.80223" lon="43.31875">
        <ele>847.085153</ele>
        <time>2021-09-29T05:56:13.038Z</time>
      </trkpt>
      <trkpt lat="41.80097" lon="43.31674">
        <ele>856.832927</ele>
        <time>2021-09-29T05:57:48.052Z</time>
      </trkpt>
      <trkpt lat="41.79948" lon="43.31463">
        <ele>858.409119</ele>
        <time>2021-09-29T05:59:05.044Z</time>
      </trkpt>
      <trkpt lat="41.79845" lon="43.31197">
        <ele>855.107888</ele>
        <time>2021-09-29T06:00:05.045Z</time>
      </trkpt>
      <trkpt lat="41.79778" lon="43.30901">
        <ele>854.028362</ele>
        <time>2021-09-29T06:00:52.044Z</time>
      </trkpt>
      <trkpt lat="41.79693" lon="43.30602">
        <ele>851.996767</ele>
        <time>2021-09-29T06:01:36.041Z</time>
      </trkpt>
      <trkpt lat="41.79544" lon="43.30399">
        <ele>851.732057</ele>
        <time>2021-09-29T06:02:33.042Z</time>
      </trkpt>
      <trkpt lat="41.79359" lon="43.30219">
        <ele>840.914996</ele>
        <time>2021-09-29T06:03:28.052Z</time>
      </trkpt>
      <trkpt lat="41.7915" lon="43.30263">
        <ele>840.597266</ele>
        <time>2021-09-29T06:04:29.049Z</time>
      </trkpt>
      <trkpt lat="41.78942" lon="43.30235">
        <ele>845.128936</ele>
        <time>2021-09-29T06:05:31.065Z</time>
      </trkpt>
      <trkpt lat="41.78839" lon="43.30011">
        <ele>861.454485</ele>
        <time>2021-09-29T06:06:32.088Z</time>
      </trkpt>
      <trkpt lat="41.78782" lon="43.29735">
        <ele>864.492277</ele>
        <time>2021-09-29T06:07:32.055Z</time>
      </trkpt>
      <trkpt lat="41.78583" lon="43.29591">
        <ele>855.759996</ele>
        <time>2021-09-29T06:08:39.078Z</time>
      </trkpt>
      <trkpt lat="41.78388" lon="43.29446">
        <ele>845.264863</ele>
        <time>2021-09-29T06:09:39.041Z</time>
      </trkpt>
      <trkpt lat="41.7818" lon="43.29378">
        <ele>846.412712</ele>
        <time>2021-09-29T06:10:39.084Z</time>
      </trkpt>
      <trkpt lat="41.77988" lon="43.29445">
        <ele>859.72193</ele>
        <time>2021-09-29T06:11:51.034Z</time>
      </trkpt>
      <trkpt lat="41.77922" lon="43.29437">
        <ele>884.504156</ele>
        <time>2021-09-29T06:14:14.051Z</time>
      </trkpt>
      <trkpt lat="41.77958" lon="43.29182">
        <ele>897.121338</ele>
        <time>2021-09-29T06:16:03.058Z</time>
      </trkpt>
      <trkpt lat="41.77858" lon="43.28961">
        <ele>900.84677</ele>
        <time>2021-09-29T06:17:33.039Z</time>
      </trkpt>
      <trkpt lat="41.77764" lon="43.28705">
        <ele>904.397491</ele>
        <time>2021-09-29T06:18:34.046Z</time>
      </trkpt>
      <trkpt lat="41.77538" lon="43.28694">
        <ele>898.794661</ele>
        <time>2021-09-29T06:19:30.080Z</time>
      </trkpt>
      <trkpt lat="41.77439" lon="43.28432">
        <ele>886.298961</ele>
        <time>2021-09-29T06:20:04.037Z</time>
      </trkpt>
      <trkpt lat="41.7762" lon="43.28101">
        <ele>870.211374</ele>
        <time>2021-09-29T06:20:46.040Z</time>
      </trkpt>
      <trkpt lat="41.77628" lon="43.27827">
        <ele>878.453165</ele>
        <time>2021-09-29T06:21:57.046Z</time>
      </trkpt>
      <trkpt lat="41.77671" lon="43.27588">
        <ele>891.912566</ele>
        <time>2021-09-29T06:23:56.082Z</time>
      </trkpt>
      <trkpt lat="41.77806" lon="43.27396">
        <ele>899.423556</ele>
        <time>2021-09-29T06:26:17.029Z</time>
      </trkpt>
      <trkpt lat="41.77936" lon="43.27204">
        <ele>911.450417</ele>
        <time>2021-09-29T06:28:37.077Z</time>
      </trkpt>
      <trkpt lat="41.78046" lon="43.26952">
        <ele>914.508397</ele>
        <time>2021-09-29T06:29:48.044Z</time>
      </trkpt>
      <trkpt lat="41.78181" lon="43.26749">
        <ele>902.061856</ele>
        <time>2021-09-29T06:30:08.063Z</time>
      </trkpt>
      <trkpt lat="41.78209" lon="43.26431">
        <ele>899.885582</ele>
        <time>2021-09-29T06:31:05.039Z</time>
      </trkpt>
      <trkpt lat="41.78243" lon="43.26154">
        <ele>904.653284</ele>
        <time>2021-09-29T06:32:29.077Z</time>
      </trkpt>
      <trkpt lat="41.78169" lon="43.25801">
        <ele>891.548164</ele>
        <time>2021-09-29T06:33:06.052Z</time>
      </trkpt>
      <trkpt lat="41.7813" lon="43.25499">
        <ele>890.68385</ele>
        <time>2021-09-29T06:34:15.051Z</time>
      </trkpt>
      <trkpt lat="41.77979" lon="43.253">
        <ele>896.2593</ele>
        <time>2021-09-29T06:35:22.061Z</time>
      </trkpt>
      <trkpt lat="41.77765" lon="43.25153">
        <ele>893.2546</ele>
        <time>2021-09-29T06:36:22.031Z</time>
      </trkpt>
      <trkpt lat="41.77553" lon="43.2504">
        <ele>891.152433</ele>
        <time>2021-09-29T06:37:20.032Z</time>
      </trkpt>
      <trkpt lat="41.77323" lon="43.24884">
        <ele>888.789438</ele>
        <time>2021-09-29T06:38:00.100Z</time>
      </trkpt>
      <trkpt lat="41.77091" lon="43.24965">
        <ele>892.484475</ele>
        <time>2021-09-29T06:38:44.043Z</time>
      </trkpt>
      <trkpt lat="41.76899" lon="43.24927">
        <ele>892.546509</ele>
        <time>2021-09-29T06:39:54.034Z</time>
      </trkpt>
      <trkpt lat="41.76726" lon="43.24786">
        <ele>896.592627</ele>
        <time>2021-09-29T06:41:03.051Z</time>
      </trkpt>
      <trkpt lat="41.7655" lon="43.24617">
        <ele>900.167449</ele>
        <time>2021-09-29T06:42:03.043Z</time>
      </trkpt>
      <trkpt lat="41.76464" lon="43.24373">
        <ele>902.302268</ele>
        <time>2021-09-29T06:43:03.059Z</time>
      </trkpt>
      <trkpt lat="41.76348" lon="43.24113">
        <ele>904.704361</ele>
        <time>2021-09-29T06:44:06.090Z</time>
      </trkpt>
      <trkpt lat="41.76348" lon="43.23829">
        <ele>904.992731</ele>
        <time>2021-09-29T06:44:58.058Z</time>
      </trkpt>
      <trkpt lat="41.76297" lon="43.23472">
        <ele>900.141247</ele>
        <time>2021-09-29T06:45:38.072Z</time>
      </trkpt>
      <trkpt lat="41.76217" lon="43.23192">
        <ele>903.304945</ele>
        <time>2021-09-29T06:46:44.058Z</time>
      </trkpt>
      <trkpt lat="41.76122" lon="43.22943">
        <ele>912.147573</ele>
        <time>2021-09-29T06:47:59.052Z</time>
      </trkpt>
      <trkpt lat="41.7609" lon="43.22677">
        <ele>915.836227</ele>
        <time>2021-09-29T06:49:20.048Z</time>
      </trkpt>
      <trkpt lat="41.76133" lon="43.22367">
        <ele>910.84371</ele>
        <time>2021-09-29T06:50:19.044Z</time>
      </trkpt>
      <trkpt lat="41.76148" lon="43.22083">
        <ele>910.665402</ele>
        <time>2021-09-29T06:51:38.047Z</time>
      </trkpt>
      <trkpt lat="41.76125" lon="43.21814">
        <ele>908.19357</ele>
        <time>2021-09-29T06:52:19.090Z</time>
      </trkpt>
      <trkpt lat="41.76035" lon="43.21489">
        <ele>907.413638</ele>
        <time>2021-09-29T06:53:01.054Z</time>
      </trkpt>
      <trkpt lat="41.759" lon="43.21249">
        <ele>905.994768</ele>
        <time>2021-09-29T06:53:55.052Z</time>
      </trkpt>
      <trkpt lat="41.75729" lon="43.21064">
        <ele>907.534492</ele>
        <time>2021-09-29T06:54:55.040Z</time>
      </trkpt>
      <trkpt lat="41.75523" lon="43.20942">
        <ele>907.792095</ele>
        <time>2021-09-29T06:55:55.054Z</time>
      </trkpt>
      <trkpt lat="41.7533" lon="43.2082">
        <ele>907.896095</ele>
        <time>2021-09-29T06:56:55.065Z</time>
      </trkpt>
      <trkpt lat="41.75168" lon="43.20674">
        <ele>909.678203</ele>
        <time>2021-09-29T06:57:57.051Z</time>
      </trkpt>
      <trkpt lat="41.74972" lon="43.20639">
        <ele>917.767536</ele>
        <time>2021-09-29T06:59:25.040Z</time>
      </trkpt>
      <trkpt lat="41.74767" lon="43.20473">
        <ele>913.244538</ele>
        <time>2021-09-29T07:00:42.047Z</time>
      </trkpt>
      <trkpt lat="41.74622" lon="43.20129">
        <ele>903.333887</ele>
        <time>2021-09-29T07:01:22.052Z</time>
      </trkpt>
      <trkpt lat="41.74455" lon="43.19932">
        <ele>903.878566</ele>
        <time>2021-09-29T07:02:18.046Z</time>
      </trkpt>
      <trkpt lat="41.74423" lon="43.19623">
        <ele>911.843967</ele>
        <time>2021-09-29T07:03:18.053Z</time>
      </trkpt>
      <trkpt lat="41.74463" lon="43.19357">
        <ele>911.727676</ele>
        <time>2021-09-29T07:04:02.040Z</time>
      </trkpt>
      <trkpt lat="41.74518" lon="43.19053">
        <ele>914.131089</ele>
        <time>2021-09-29T07:04:58.065Z</time>
      </trkpt>
      <trkpt lat="41.74528" lon="43.18768">
        <ele>912.845466</ele>
        <time>2021-09-29T07:05:50.051Z</time>
      </trkpt>
      <trkpt lat="41.74394" lon="43.18525">
        <ele>913.237648</ele>
        <time>2021-09-29T07:06:42.035Z</time>
      </trkpt>
      <trkpt lat="41.74244" lon="43.18284">
        <ele>911.646256</ele>
        <time>2021-09-29T07:07:38.044Z</time>
      </trkpt>
      <trkpt lat="41.74086" lon="43.18081">
        <ele>914.533986</ele>
        <time>2021-09-29T07:08:41.062Z</time>
      </trkpt>
      <trkpt lat="41.74079" lon="43.17817">
        <ele>923.80334</ele>
        <time>2021-09-29T07:10:01.035Z</time>
      </trkpt>
      <trkpt lat="41.74018" lon="43.17538">
        <ele>924.803185</ele>
        <time>2021-09-29T07:10:47.033Z</time>
      </trkpt>
      <trkpt lat="41.73842" lon="43.17313">
        <ele>917.146599</ele>
        <time>2021-09-29T07:11:46.033Z</time>
      </trkpt>
      <trkpt lat="41.7367" lon="43.17088">
        <ele>914.067204</ele>
        <time>2021-09-29T07:12:44.049Z</time>
      </trkpt>
      <trkpt lat="41.73524" lon="43.16886">
        <ele>911.418622</ele>
        <time>2021-09-29T07:13:28.030Z</time>
      </trkpt>
      <trkpt lat="41.73328" lon="43.16746">
        <ele>920.841121</ele>
        <time>2021-09-29T07:14:51.046Z</time>
      </trkpt>
      <trkpt lat="41.73197" lon="43.16543">
        <ele>929.19645</ele>
        <time>2021-09-29T07:16:19.050Z</time>
      </trkpt>
      <trkpt lat="41.73083" lon="43.16287">
        <ele>928.109248</ele>
        <time>2021-09-29T07:17:09.058Z</time>
      </trkpt>
      <trkpt lat="41.72982" lon="43.16014">
        <ele>930.476955</ele>
        <time>2021-09-29T07:18:13.055Z</time>
      </trkpt>
      <trkpt lat="41.72834" lon="43.1579">
        <ele>929.591483</ele>
        <time>2021-09-29T07:19:04.043Z</time>
      </trkpt>
      <trkpt lat="41.72672" lon="43.15602">
        <ele>923.716018</ele>
        <time>2021-09-29T07:19:48.089Z</time>
      </trkpt>
      <trkpt lat="41.72509" lon="43.15415">
        <ele>921.186708</ele>
        <time>2021-09-29T07:20:28.081Z</time>
      </trkpt>
      <trkpt lat="41.72342" lon="43.15231">
        <ele>926.423903</ele>
        <time>2021-09-29T07:21:20.048Z</time>
      </trkpt>
      <trkpt lat="41.72177" lon="43.15044">
        <ele>940.091505</ele>
        <time>2021-09-29T07:22:54.050Z</time>
      </trkpt>
      <trkpt lat="41.7202" lon="43.14872">
        <ele>947.332424</ele>
        <time>2021-09-29T07:24:32.043Z</time>
      </trkpt>
      <trkpt lat="41.71869" lon="43.1468">
        <ele>947.973249</ele>
        <time>2021-09-29T07:25:30.044Z</time>
      </trkpt>
      <trkpt lat="41.71729" lon="43.14406">
        <ele>936.521421</ele>
        <time>2021-09-29T07:26:09.052Z</time>
      </trkpt>
      <trkpt lat="41.71463" lon="43.14337">
        <ele>929.472479</ele>
        <time>2021-09-29T07:26:49.046Z</time>
      </trkpt>
      <trkpt lat="41.71158" lon="43.14295">
        <ele>920.905486</ele>
        <time>2021-09-29T07:27:29.051Z</time>
      </trkpt>
      <trkpt lat="41.70934" lon="43.14263">
        <ele>920.014436</ele>
        <time>2021-09-29T07:28:14.057Z</time>
      </trkpt>
      <trkpt lat="41.70731" lon="43.14217">
        <ele>921.399942</ele>
        <time>2021-09-29T07:28:59.053Z</time>
      </trkpt>
      <trkpt lat="41.70543" lon="43.14111">
        <ele>923.220284</ele>
        <time>2021-09-29T07:29:43.062Z</time>
      </trkpt>
      <trkpt lat="41.70333" lon="43.13998">
        <ele>924.836097</ele>
        <time>2021-09-29T07:30:33.058Z</time>
      </trkpt>
      <trkpt lat="41.70135" lon="43.13884">
        <ele>926.668736</ele>
        <time>2021-09-29T07:31:20.037Z</time>
      </trkpt>
      <trkpt lat="41.69926" lon="43.13739">
        <ele>929.993475</ele>
        <time>2021-09-29T07:32:16.045Z</time>
      </trkpt>
      <trkpt lat="41.69724" lon="43.1357">
        <ele>928.817446</ele>
        <time>2021-09-29T07:33:16.056Z</time>
      </trkpt>
      <trkpt lat="41.69558" lon="43.13402">
        <ele>929.281571</ele>
        <time>2021-09-29T07:34:22.053Z</time>
      </trkpt>
      <trkpt lat="41.69452" lon="43.13124">
        <ele>929.43656</ele>
        <time>2021-09-29T07:35:17.060Z</time>
      </trkpt>
      <trkpt lat="41.69442" lon="43.12849">
        <ele>934.037593</ele>
        <time>2021-09-29T07:51:22.016Z</time>
      </trkpt>
      <trkpt lat="41.69458" lon="43.12543">
        <ele>935.722837</ele>
        <time>2021-09-29T07:52:19.019Z</time>
      </trkpt>
      <trkpt lat="41.69433" lon="43.12255">
        <ele>934.658325</ele>
        <time>2021-09-29T07:53:22.046Z</time>
      </trkpt>
      <trkpt lat="41.69426" lon="43.11967">
        <ele>937.365389</ele>
        <time>2021-09-29T07:54:18.019Z</time>
      </trkpt>
      <trkpt lat="41.6934" lon="43.11702">
        <ele>936.581564</ele>
        <time>2021-09-29T07:55:06.019Z</time>
      </trkpt>
      <trkpt lat="41.69194" lon="43.11463">
        <ele>934.033735</ele>
        <time>2021-09-29T07:55:56.020Z</time>
      </trkpt>
      <trkpt lat="41.69072" lon="43.11214">
        <ele>933.667332</ele>
        <time>2021-09-29T07:56:47.021Z</time>
      </trkpt>
      <trkpt lat="41.68987" lon="43.10958">
        <ele>938.159897</ele>
        <time>2021-09-29T07:57:41.016Z</time>
      </trkpt>
      <trkpt lat="41.68947" lon="43.10678">
        <ele>943.437484</ele>
        <time>2021-09-29T07:58:45.014Z</time>
      </trkpt>
      <trkpt lat="41.68878" lon="43.10415">
        <ele>950.33842</ele>
        <time>2021-09-29T07:59:55.018Z</time>
      </trkpt>
      <trkpt lat="41.68913" lon="43.10184">
        <ele>946.681379</ele>
        <time>2021-09-29T08:00:56.040Z</time>
      </trkpt>
      <trkpt lat="41.69048" lon="43.09972">
        <ele>941.478498</ele>
        <time>2021-09-29T08:01:38.017Z</time>
      </trkpt>
      <trkpt lat="41.6913" lon="43.09714">
        <ele>937.905642</ele>
        <time>2021-09-29T08:02:20.039Z</time>
      </trkpt>
      <trkpt lat="41.69067" lon="43.09435">
        <ele>943.174061</ele>
        <time>2021-09-29T08:03:22.047Z</time>
      </trkpt>
      <trkpt lat="41.69014" lon="43.09162">
        <ele>949.181402</ele>
        <time>2021-09-29T08:04:34.029Z</time>
      </trkpt>
      <trkpt lat="41.69122" lon="43.08906">
        <ele>946.453421</ele>
        <time>2021-09-29T08:05:30.024Z</time>
      </trkpt>
      <trkpt lat="41.69239" lon="43.08626">
        <ele>942.903936</ele>
        <time>2021-09-29T08:06:10.024Z</time>
      </trkpt>
      <trkpt lat="41.69311" lon="43.08357">
        <ele>941.713291</ele>
        <time>2021-09-29T08:06:57.024Z</time>
      </trkpt>
      <trkpt lat="41.69374" lon="43.0805">
        <ele>939.57751</ele>
        <time>2021-09-29T08:07:46.042Z</time>
      </trkpt>
      <trkpt lat="41.69437" lon="43.07754">
        <ele>940.806431</ele>
        <time>2021-09-29T08:08:39.020Z</time>
      </trkpt>
      <trkpt lat="41.69497" lon="43.07484">
        <ele>944.516471</ele>
        <time>2021-09-29T08:09:39.017Z</time>
      </trkpt>
      <trkpt lat="41.6947" lon="43.07203">
        <ele>946.845149</ele>
        <time>2021-09-29T08:10:35.018Z</time>
      </trkpt>
      <trkpt lat="41.69356" lon="43.06954">
        <ele>946.055869</ele>
        <time>2021-09-29T08:11:15.035Z</time>
      </trkpt>
      <trkpt lat="41.69229" lon="43.06687">
        <ele>946.518907</ele>
        <time>2021-09-29T08:12:12.021Z</time>
      </trkpt>
      <trkpt lat="41.69062" lon="43.06515">
        <ele>946.124859</ele>
        <time>2021-09-29T08:12:59.019Z</time>
      </trkpt>
      <trkpt lat="41.68803" lon="43.0657">
        <ele>942.684053</ele>
        <time>2021-09-29T08:13:46.017Z</time>
      </trkpt>
      <trkpt lat="41.68616" lon="43.06718">
        <ele>946.715446</ele>
        <time>2021-09-29T08:14:38.027Z</time>
      </trkpt>
      <trkpt lat="41.68446" lon="43.06856">
        <ele>952.054629</ele>
        <time>2021-09-29T08:15:57.033Z</time>
      </trkpt>
      <trkpt lat="41.68308" lon="43.07042">
        <ele>962.776948</ele>
        <time>2021-09-29T08:17:33.031Z</time>
      </trkpt>
      <trkpt lat="41.68179" lon="43.0724">
        <ele>965.73388</ele>
        <time>2021-09-29T08:18:53.052Z</time>
      </trkpt>
      <trkpt lat="41.6803" lon="43.07374">
        <ele>968.800271</ele>
        <time>2021-09-29T08:20:16.051Z</time>
      </trkpt>
      <trkpt lat="41.67836" lon="43.0715">
        <ele>960.866965</ele>
        <time>2021-09-29T08:20:46.045Z</time>
      </trkpt>
      <trkpt lat="41.67653" lon="43.06924">
        <ele>949.65804</ele>
        <time>2021-09-29T08:21:18.049Z</time>
      </trkpt>
      <trkpt lat="41.67518" lon="43.067">
        <ele>943.952946</ele>
        <time>2021-09-29T08:22:05.050Z</time>
      </trkpt>
      <trkpt lat="41.67367" lon="43.06433">
        <ele>941.347899</ele>
        <time>2021-09-29T08:22:45.033Z</time>
      </trkpt>
      <trkpt lat="41.67221" lon="43.06201">
        <ele>947.495941</ele>
        <time>2021-09-29T08:23:42.050Z</time>
      </trkpt>
      <trkpt lat="41.67103" lon="43.05977">
        <ele>957.188465</ele>
        <time>2021-09-29T08:24:46.041Z</time>
      </trkpt>
      <trkpt lat="41.66979" lon="43.05751">
        <ele>960.790367</ele>
        <time>2021-09-29T08:25:58.029Z</time>
      </trkpt>
      <trkpt lat="41.66853" lon="43.05521">
        <ele>966.972134</ele>
        <time>2021-09-29T08:27:15.029Z</time>
      </trkpt>
      <trkpt lat="41.66724" lon="43.05298">
        <ele>971.396854</ele>
        <time>2021-09-29T08:28:31.037Z</time>
      </trkpt>
      <trkpt lat="41.66657" lon="43.0503">
        <ele>977.343882</ele>
        <time>2021-09-29T08:29:51.048Z</time>
      </trkpt>
      <trkpt lat="41.66616" lon="43.0476">
        <ele>984.002049</ele>
        <time>2021-09-29T08:31:11.041Z</time>
      </trkpt>
      <trkpt lat="41.66548" lon="43.04506">
        <ele>985.702174</ele>
        <time>2021-09-29T08:32:17.056Z</time>
      </trkpt>
      <trkpt lat="41.66421" lon="43.04288">
        <ele>989.635719</ele>
        <time>2021-09-29T08:33:56.057Z</time>
      </trkpt>
      <trkpt lat="41.66307" lon="43.04028">
        <ele>986.492932</ele>
        <time>2021-09-29T08:34:56.066Z</time>
      </trkpt>
      <trkpt lat="41.66187" lon="43.03761">
        <ele>988.835783</ele>
        <time>2021-09-29T08:36:00.053Z</time>
      </trkpt>
      <trkpt lat="41.66094" lon="43.03523">
        <ele>994.875029</ele>
        <time>2021-09-29T08:37:04.051Z</time>
      </trkpt>
      <trkpt lat="41.65982" lon="43.03202">
        <ele>993.225599</ele>
        <time>2021-09-29T08:37:47.049Z</time>
      </trkpt>
      <trkpt lat="41.6588" lon="43.02911">
        <ele>992.678189</ele>
        <time>2021-09-29T08:38:37.053Z</time>
      </trkpt>
      <trkpt lat="41.65784" lon="43.02663">
        <ele>998.106273</ele>
        <time>2021-09-29T08:39:53.046Z</time>
      </trkpt>
      <trkpt lat="41.65698" lon="43.02417">
        <ele>1001.827819</ele>
        <time>2021-09-29T08:40:55.062Z</time>
      </trkpt>
      <trkpt lat="41.6561" lon="43.02161">
        <ele>1005.741885</ele>
        <time>2021-09-29T08:41:58.052Z</time>
      </trkpt>
      <trkpt lat="41.65494" lon="43.01913">
        <ele>1009.329655</ele>
        <time>2021-09-29T08:43:04.087Z</time>
      </trkpt>
      <trkpt lat="41.65374" lon="43.01659">
        <ele>1003.808665</ele>
        <time>2021-09-29T08:43:55.051Z</time>
      </trkpt>
      <trkpt lat="41.65262" lon="43.01434">
        <ele>1002.140366</ele>
        <time>2021-09-29T08:44:37.049Z</time>
      </trkpt>
      <trkpt lat="41.65129" lon="43.01163">
        <ele>1000.879087</ele>
        <time>2021-09-29T08:45:36.050Z</time>
      </trkpt>
      <trkpt lat="41.65003" lon="43.00904">
        <ele>996.416478</ele>
        <time>2021-09-29T08:46:16.048Z</time>
      </trkpt>
      <trkpt lat="41.64874" lon="43.00617">
        <ele>987.593927</ele>
        <time>2021-09-29T08:47:01.059Z</time>
      </trkpt>
      <trkpt lat="41.64775" lon="43.00347">
        <ele>984.597591</ele>
        <time>2021-09-29T08:47:43.042Z</time>
      </trkpt>
      <trkpt lat="41.64586" lon="43.00169">
        <ele>979.531214</ele>
        <time>2021-09-29T08:48:23.053Z</time>
      </trkpt>
      <trkpt lat="41.64404" lon="43.00335">
        <ele>970.361437</ele>
        <time>2021-09-29T08:49:03.057Z</time>
      </trkpt>
      <trkpt lat="41.64347" lon="43.00606">
        <ele>970.145763</ele>
        <time>2021-09-29T08:57:02.043Z</time>
      </trkpt>
      <trkpt lat="41.64293" lon="43.00881">
        <ele>970.006641</ele>
        <time>2021-09-29T08:57:49.092Z</time>
      </trkpt>
      <trkpt lat="41.64236" lon="43.01139">
        <ele>968.941318</ele>
        <time>2021-09-29T08:58:29.070Z</time>
      </trkpt>
      <trkpt lat="41.64142" lon="43.01374">
        <ele>968.640657</ele>
        <time>2021-09-29T08:59:10.042Z</time>
      </trkpt>
      <trkpt lat="41.63944" lon="43.01504">
        <ele>971.986132</ele>
        <time>2021-09-29T09:00:09.113Z</time>
      </trkpt>
      <trkpt lat="41.63981" lon="43.01807">
        <ele>971.160576</ele>
        <time>2021-09-29T09:01:07.051Z</time>
      </trkpt>
      <trkpt lat="41.6403" lon="43.02081">
        <ele>981.48829</ele>
        <time>2021-09-29T09:02:20.054Z</time>
      </trkpt>
      <trkpt lat="41.64127" lon="43.02324">
        <ele>990.19212</ele>
        <time>2021-09-29T09:03:41.048Z</time>
      </trkpt>
      <trkpt lat="41.64203" lon="43.02572">
        <ele>996.623146</ele>
        <time>2021-09-29T09:05:02.039Z</time>
      </trkpt>
      <trkpt lat="41.64107" lon="43.02788">
        <ele>998.239794</ele>
        <time>2021-09-29T09:06:31.100Z</time>
      </trkpt>
      <trkpt lat="41.63979" lon="43.02999">
        <ele>1006.581307</ele>
        <time>2021-09-29T09:08:12.095Z</time>
      </trkpt>
      <trkpt lat="41.63879" lon="43.03248">
        <ele>1007.955681</ele>
        <time>2021-09-29T09:08:57.049Z</time>
      </trkpt>
      <trkpt lat="41.63785" lon="43.03522">
        <ele>1011.858828</ele>
        <time>2021-09-29T09:09:50.036Z</time>
      </trkpt>
      <trkpt lat="41.6371" lon="43.03773">
        <ele>1015.750769</ele>
        <time>2021-09-29T09:10:32.057Z</time>
      </trkpt>
      <trkpt lat="41.63587" lon="43.04062">
        <ele>1008.311247</ele>
        <time>2021-09-29T09:11:22.046Z</time>
      </trkpt>
      <trkpt lat="41.63402" lon="43.04327">
        <ele>989.634854</ele>
        <time>2021-09-29T09:11:58.060Z</time>
      </trkpt>
      <trkpt lat="41.63216" lon="43.04418">
        <ele>973.894597</ele>
        <time>2021-09-29T09:12:18.042Z</time>
      </trkpt>
      <trkpt lat="41.63057" lon="43.04638">
        <ele>965.521589</ele>
        <time>2021-09-29T09:12:52.072Z</time>
      </trkpt>
      <trkpt lat="41.62913" lon="43.04841">
        <ele>965.414812</ele>
        <time>2021-09-29T09:13:37.051Z</time>
      </trkpt>
      <trkpt lat="41.62767" lon="43.05055">
        <ele>967.798018</ele>
        <time>2021-09-29T09:14:24.053Z</time>
      </trkpt>
      <trkpt lat="41.62575" lon="43.05082">
        <ele>969.316604</ele>
        <time>2021-09-29T09:15:04.044Z</time>
      </trkpt>
      <trkpt lat="41.62368" lon="43.05011">
        <ele>969.676068</ele>
        <time>2021-09-29T09:15:50.042Z</time>
      </trkpt>
      <trkpt lat="41.62156" lon="43.04943">
        <ele>973.623299</ele>
        <time>2021-09-29T09:16:54.059Z</time>
      </trkpt>
      <trkpt lat="41.61949" lon="43.05004">
        <ele>969.673365</ele>
        <time>2021-09-29T09:17:34.045Z</time>
      </trkpt>
      <trkpt lat="41.62058" lon="43.05278">
        <ele>961.811388</ele>
        <time>2021-09-29T09:18:30.097Z</time>
      </trkpt>
      <trkpt lat="41.62127" lon="43.05561">
        <ele>962.731702</ele>
        <time>2021-09-29T09:19:21.024Z</time>
      </trkpt>
      <trkpt lat="41.62195" lon="43.05822">
        <ele>963.97451</ele>
        <time>2021-09-29T09:20:05.030Z</time>
      </trkpt>
      <trkpt lat="41.62295" lon="43.06104">
        <ele>965.052222</ele>
        <time>2021-09-29T09:22:39.053Z</time>
      </trkpt>
      <trkpt lat="41.62411" lon="43.06347">
        <ele>963.92159</ele>
        <time>2021-09-29T09:23:24.058Z</time>
      </trkpt>
      <trkpt lat="41.62374" lon="43.06632">
        <ele>963.236965</ele>
        <time>2021-09-29T09:24:11.048Z</time>
      </trkpt>
      <trkpt lat="41.62231" lon="43.06824">
        <ele>960.916403</ele>
        <time>2021-09-29T09:24:53.039Z</time>
      </trkpt>
      <trkpt lat="41.62032" lon="43.06895">
        <ele>971.828614</ele>
        <time>2021-09-29T09:25:41.046Z</time>
      </trkpt>
      <trkpt lat="41.61848" lon="43.06755">
        <ele>978.290771</ele>
        <time>2021-09-29T09:26:26.047Z</time>
      </trkpt>
      <trkpt lat="41.61698" lon="43.06552">
        <ele>973.994806</ele>
        <time>2021-09-29T09:27:07.056Z</time>
      </trkpt>
      <trkpt lat="41.61468" lon="43.06518">
        <ele>975.816928</ele>
        <time>2021-09-29T09:28:05.039Z</time>
      </trkpt>
      <trkpt lat="41.6124" lon="43.06489">
        <ele>980.387152</ele>
        <time>2021-09-29T09:28:52.054Z</time>
      </trkpt>
      <trkpt lat="41.61041" lon="43.0654">
        <ele>986.3359</ele>
        <time>2021-09-29T09:29:35.066Z</time>
      </trkpt>
      <trkpt lat="41.60858" lon="43.06678">
        <ele>991.339132</ele>
        <time>2021-09-29T09:30:27.053Z</time>
      </trkpt>
      <trkpt lat="41.61022" lon="43.06869">
        <ele>979.256366</ele>
        <time>2021-09-29T09:31:25.044Z</time>
      </trkpt>
      <trkpt lat="41.61225" lon="43.06962">
        <ele>976.67445</ele>
        <time>2021-09-29T09:32:19.055Z</time>
      </trkpt>
      <trkpt lat="41.61198" lon="43.07239">
        <ele>976.798247</ele>
        <time>2021-09-29T09:33:09.066Z</time>
      </trkpt>
      <trkpt lat="41.61072" lon="43.07459">
        <ele>975.310158</ele>
        <time>2021-09-29T09:33:56.050Z</time>
      </trkpt>
      <trkpt lat="41.6089" lon="43.07643">
        <ele>982.000169</ele>
        <time>2021-09-29T09:34:48.054Z</time>
      </trkpt>
      <trkpt lat="41.60842" lon="43.07944">
        <ele>987.681798</ele>
        <time>2021-09-29T09:35:43.050Z</time>
      </trkpt>
      <trkpt lat="41.60818" lon="43.08255">
        <ele>989.556628</ele>
        <time>2021-09-29T09:36:43.056Z</time>
      </trkpt>
      <trkpt lat="41.60887" lon="43.08547">
        <ele>992.293007</ele>
        <time>2021-09-29T09:37:42.046Z</time>
      </trkpt>
      <trkpt lat="41.60884" lon="43.08814">
        <ele>987.024923</ele>
        <time>2021-09-29T09:38:53.048Z</time>
      </trkpt>
      <trkpt lat="41.60967" lon="43.09067">
        <ele>990.526477</ele>
        <time>2021-09-29T09:39:44.052Z</time>
      </trkpt>
      <trkpt lat="41.61018" lon="43.09338">
        <ele>988.839002</ele>
        <time>2021-09-29T09:40:31.051Z</time>
      </trkpt>
      <trkpt lat="41.61072" lon="43.09608">
        <ele>987.660002</ele>
        <time>2021-09-29T09:41:19.046Z</time>
      </trkpt>
      <trkpt lat="41.61114" lon="43.09883">
        <ele>987.617515</ele>
        <time>2021-09-29T09:42:00.046Z</time>
      </trkpt>
      <trkpt lat="41.61318" lon="43.09952">
        <ele>995.562602</ele>
        <time>2021-09-29T09:42:48.062Z</time>
      </trkpt>
      <trkpt lat="41.6152" lon="43.10025">
        <ele>993.411187</ele>
        <time>2021-09-29T09:43:36.049Z</time>
      </trkpt>
      <trkpt lat="41.61721" lon="43.10118">
        <ele>991.159964</ele>
        <time>2021-09-29T09:44:21.036Z</time>
      </trkpt>
      <trkpt lat="41.61669" lon="43.10391">
        <ele>992.682509</ele>
        <time>2021-09-29T09:45:16.045Z</time>
      </trkpt>
      <trkpt lat="41.61609" lon="43.10639">
        <ele>990.543034</ele>
        <time>2021-09-29T09:45:58.069Z</time>
      </trkpt>
      <trkpt lat="41.61643" lon="43.10916">
        <ele>994.910191</ele>
        <time>2021-09-29T09:46:42.050Z</time>
      </trkpt>
      <trkpt lat="41.61683" lon="43.11182">
        <ele>998.27411</ele>
        <time>2021-09-29T09:47:46.063Z</time>
      </trkpt>
      <trkpt lat="41.61678" lon="43.11447">
        <ele>1002.759929</ele>
        <time>2021-09-29T09:49:06.051Z</time>
      </trkpt>
      <trkpt lat="41.61557" lon="43.11709">
        <ele>1002.306475</ele>
        <time>2021-09-29T09:49:55.047Z</time>
      </trkpt>
      <trkpt lat="41.61516" lon="43.11978">
        <ele>1003.445143</ele>
        <time>2021-09-29T09:50:35.059Z</time>
      </trkpt>
      <trkpt lat="41.61478" lon="43.12255">
        <ele>1005.644279</ele>
        <time>2021-09-29T09:51:21.069Z</time>
      </trkpt>
      <trkpt lat="41.61452" lon="43.12537">
        <ele>1012.518484</ele>
        <time>2021-09-29T09:52:36.040Z</time>
      </trkpt>
      <trkpt lat="41.61459" lon="43.12829">
        <ele>1019.739486</ele>
        <time>2021-09-29T09:53:48.045Z</time>
      </trkpt>
      <trkpt lat="41.61467" lon="43.13099">
        <ele>1023.642516</ele>
        <time>2021-09-29T09:55:23.069Z</time>
      </trkpt>
      <trkpt lat="41.61516" lon="43.13397">
        <ele>1017.113191</ele>
        <time>2021-09-29T09:55:54.073Z</time>
      </trkpt>
      <trkpt lat="41.61513" lon="43.13686">
        <ele>1007.776128</ele>
        <time>2021-09-29T09:56:23.044Z</time>
      </trkpt>
      <trkpt lat="41.61385" lon="43.13916">
        <ele>1007.080167</ele>
        <time>2021-09-29T09:57:11.081Z</time>
      </trkpt>
      <trkpt lat="41.6117" lon="43.14029">
        <ele>1012.082823</ele>
        <time>2021-09-29T09:58:04.055Z</time>
      </trkpt>
      <trkpt lat="41.60967" lon="43.14011">
        <ele>1019.902556</ele>
        <time>2021-09-29T09:59:22.055Z</time>
      </trkpt>
      <trkpt lat="41.60811" lon="43.13835">
        <ele>1030.894229</ele>
        <time>2021-09-29T10:00:49.062Z</time>
      </trkpt>
      <trkpt lat="41.60683" lon="43.13642">
        <ele>1039.020846</ele>
        <time>2021-09-29T10:02:34.043Z</time>
      </trkpt>
      <trkpt lat="41.60497" lon="43.13637">
        <ele>1043.569466</ele>
        <time>2021-09-29T10:03:54.042Z</time>
      </trkpt>
      <trkpt lat="41.60491" lon="43.13925">
        <ele>1046.121085</ele>
        <time>2021-09-29T10:04:57.058Z</time>
      </trkpt>
      <trkpt lat="41.6055" lon="43.14231">
        <ele>1038.339144</ele>
        <time>2021-09-29T10:05:38.056Z</time>
      </trkpt>
      <trkpt lat="41.6061" lon="43.14547">
        <ele>1029.599646</ele>
        <time>2021-09-29T10:10:30.055Z</time>
      </trkpt>
      <trkpt lat="41.60467" lon="43.14725">
        <ele>1034.742053</ele>
        <time>2021-09-29T10:12:08.046Z</time>
      </trkpt>
      <trkpt lat="41.60271" lon="43.14769">
        <ele>1039.245112</ele>
        <time>2021-09-29T10:13:56.047Z</time>
      </trkpt>
      <trkpt lat="41.60074" lon="43.14866">
        <ele>1040.989196</ele>
        <time>2021-09-29T10:14:58.051Z</time>
      </trkpt>
      <trkpt lat="41.59971" lon="43.15117">
        <ele>1034.231067</ele>
        <time>2021-09-29T10:16:06.034Z</time>
      </trkpt>
      <trkpt lat="41.59753" lon="43.15358">
        <ele>1033.034326</ele>
        <time>2021-09-29T10:16:52.047Z</time>
      </trkpt>
      <trkpt lat="41.59595" lon="43.15565">
        <ele>1036.246725</ele>
        <time>2021-09-29T10:17:46.053Z</time>
      </trkpt>
      <trkpt lat="41.59477" lon="43.15786">
        <ele>1041.52946</ele>
        <time>2021-09-29T10:19:05.030Z</time>
      </trkpt>
      <trkpt lat="41.59408" lon="43.1605">
        <ele>1052.392015</ele>
        <time>2021-09-29T10:20:40.038Z</time>
      </trkpt>
      <trkpt lat="41.59419" lon="43.16306">
        <ele>1060.388533</ele>
        <time>2021-09-29T10:22:21.070Z</time>
      </trkpt>
      <trkpt lat="41.59368" lon="43.16622">
        <ele>1054.80771</ele>
        <time>2021-09-29T10:23:21.046Z</time>
      </trkpt>
      <trkpt lat="41.59345" lon="43.16926">
        <ele>1046.941463</ele>
        <time>2021-09-29T10:23:47.056Z</time>
      </trkpt>
      <trkpt lat="41.59289" lon="43.1719">
        <ele>1051.988207</ele>
        <time>2021-09-29T10:25:02.059Z</time>
      </trkpt>
      <trkpt lat="41.59234" lon="43.17456">
        <ele>1059.025989</ele>
        <time>2021-09-29T10:26:20.057Z</time>
      </trkpt>
      <trkpt lat="41.59249" lon="43.17754">
        <ele>1054.13597</ele>
        <time>2021-09-29T10:27:06.046Z</time>
      </trkpt>
      <trkpt lat="41.5927" lon="43.17986">
        <ele>1055.061284</ele>
        <time>2021-09-29T10:28:01.060Z</time>
      </trkpt>
      <trkpt lat="41.59353" lon="43.18223">
        <ele>1060.200266</ele>
        <time>2021-09-29T10:29:06.064Z</time>
      </trkpt>
      <trkpt lat="41.59386" lon="43.18471">
        <ele>1066.533581</ele>
        <time>2021-09-29T10:30:58.056Z</time>
      </trkpt>
      <trkpt lat="41.59494" lon="43.18722">
        <ele>1058.921713</ele>
        <time>2021-09-29T10:32:24.039Z</time>
      </trkpt>
      <trkpt lat="41.59587" lon="43.19044">
        <ele>1052.450674</ele>
        <time>2021-09-29T10:33:03.046Z</time>
      </trkpt>
      <trkpt lat="41.59754" lon="43.19282">
        <ele>1057.941976</ele>
        <time>2021-09-29T10:33:55.066Z</time>
      </trkpt>
      <trkpt lat="41.59734" lon="43.19513">
        <ele>1064.307342</ele>
        <time>2021-09-29T10:35:13.053Z</time>
      </trkpt>
      <trkpt lat="41.59602" lon="43.19737">
        <ele>1059.979105</ele>
        <time>2021-09-29T10:35:54.062Z</time>
      </trkpt>
      <trkpt lat="41.59487" lon="43.19997">
        <ele>1057.976271</ele>
        <time>2021-09-29T10:36:46.067Z</time>
      </trkpt>
      <trkpt lat="41.59551" lon="43.20292">
        <ele>1059.088428</ele>
        <time>2021-09-29T10:37:43.051Z</time>
      </trkpt>
      <trkpt lat="41.59636" lon="43.20554">
        <ele>1055.530154</ele>
        <time>2021-09-29T10:38:30.058Z</time>
      </trkpt>
      <trkpt lat="41.59623" lon="43.20834">
        <ele>1067.412554</ele>
        <time>2021-09-29T10:39:30.103Z</time>
      </trkpt>
      <trkpt lat="41.5952" lon="43.21104">
        <ele>1067.682632</ele>
        <time>2021-09-29T10:40:23.058Z</time>
      </trkpt>
      <trkpt lat="41.59483" lon="43.21409">
        <ele>1062.706822</ele>
        <time>2021-09-29T10:41:29.058Z</time>
      </trkpt>
      <trkpt lat="41.59549" lon="43.21688">
        <ele>1065.536751</ele>
        <time>2021-09-29T10:42:35.047Z</time>
      </trkpt>
      <trkpt lat="41.59567" lon="43.21979">
        <ele>1064.482767</ele>
        <time>2021-09-29T10:43:38.053Z</time>
      </trkpt>
      <trkpt lat="41.59574" lon="43.22248">
        <ele>1062.314729</ele>
        <time>2021-09-29T10:44:18.037Z</time>
      </trkpt>
      <trkpt lat="41.59561" lon="43.22522">
        <ele>1064.832286</ele>
        <time>2021-09-29T10:45:10.055Z</time>
      </trkpt>
      <trkpt lat="41.59418" lon="43.22716">
        <ele>1066.203878</ele>
        <time>2021-09-29T10:46:03.048Z</time>
      </trkpt>
      <trkpt lat="41.59187" lon="43.22749">
        <ele>1062.977672</ele>
        <time>2021-09-29T10:47:05.049Z</time>
      </trkpt>
      <trkpt lat="41.58983" lon="43.22774">
        <ele>1075.266084</ele>
        <time>2021-09-29T10:48:35.057Z</time>
      </trkpt>
      <trkpt lat="41.58937" lon="43.23044">
        <ele>1093.227357</ele>
        <time>2021-09-29T10:49:53.065Z</time>
      </trkpt>
      <trkpt lat="41.58848" lon="43.23317">
        <ele>1084.285374</ele>
        <time>2021-09-29T10:50:22.059Z</time>
      </trkpt>
      <trkpt lat="41.58771" lon="43.2368">
        <ele>1074.596915</ele>
        <time>2021-09-29T10:51:04.055Z</time>
      </trkpt>
      <trkpt lat="41.58664" lon="43.23926">
        <ele>1076.947759</ele>
        <time>2021-09-29T10:51:49.062Z</time>
      </trkpt>
      <trkpt lat="41.58585" lon="43.24222">
        <ele>1079.375477</ele>
        <time>2021-09-29T10:52:48.037Z</time>
      </trkpt>
      <trkpt lat="41.58436" lon="43.24397">
        <ele>1081.194343</ele>
        <time>2021-09-29T10:53:30.035Z</time>
      </trkpt>
      <trkpt lat="41.58244" lon="43.24483">
        <ele>1083.716366</ele>
        <time>2021-09-29T10:54:37.038Z</time>
      </trkpt>
      <trkpt lat="41.58049" lon="43.24405">
        <ele>1091.927919</ele>
        <time>2021-09-29T10:56:01.034Z</time>
      </trkpt>
      <trkpt lat="41.57864" lon="43.24332">
        <ele>1099.25895</ele>
        <time>2021-09-29T10:57:46.055Z</time>
      </trkpt>
      <trkpt lat="41.57706" lon="43.24506">
        <ele>1095.995107</ele>
        <time>2021-09-29T10:58:35.043Z</time>
      </trkpt>
      <trkpt lat="41.57566" lon="43.24789">
        <ele>1090.22516</ele>
        <time>2021-09-29T10:59:15.070Z</time>
      </trkpt>
      <trkpt lat="41.5739" lon="43.24691">
        <ele>1092.555456</ele>
        <time>2021-09-29T11:00:10.050Z</time>
      </trkpt>
      <trkpt lat="41.57324" lon="43.2495">
        <ele>1107.445489</ele>
        <time>2021-09-29T11:01:44.064Z</time>
      </trkpt>
      <trkpt lat="41.57264" lon="43.25189">
        <ele>1118.75958</ele>
        <time>2021-09-29T11:03:24.041Z</time>
      </trkpt>
      <trkpt lat="41.57117" lon="43.25358">
        <ele>1127.235892</ele>
        <time>2021-09-29T11:05:12.058Z</time>
      </trkpt>
      <trkpt lat="41.56926" lon="43.25429">
        <ele>1133.85936</ele>
        <time>2021-09-29T11:07:02.052Z</time>
      </trkpt>
      <trkpt lat="41.56918" lon="43.25633">
        <ele>1147.036998</ele>
        <time>2021-09-29T11:09:00.066Z</time>
      </trkpt>
      <trkpt lat="41.57021" lon="43.25582">
        <ele>1148.599525</ele>
        <time>2021-09-29T11:13:38.065Z</time>
      </trkpt>
    </trkseg>
  </trk>
</gpx>